Time;durP1;ratioP1;P1;durP2;ratioP2;P2;SDS_P1;SDS_P2;PMS_P1;PMS_P2;Temp;Humidity;BMP_temperature;BMP_pressure;BME280_temperature;BME280_humidity;BME280_pressure;Samples;Min_cycle;Max_cycle;Signal;HPM_P1;HPM_P2
2021/07/12 00:01:14;;;;;;;29.27;21.23;;;21.70;87.30;;;;;;4879094;29;20024;-66
2021/07/12 00:03:39;;;;;;;28.13;20.63;;;21.70;87.20;;;;;;4896430;29;20036;-66
2021/07/12 00:06:05;;;;;;;28.13;20.20;;;21.70;87.00;;;;;;4896450;29;20073;-66
2021/07/12 00:08:31;;;;;;;28.65;19.48;;;21.70;87.00;;;;;;4895856;29;20043;-67
2021/07/12 00:10:56;;;;;;;27.40;20.13;;;21.70;86.90;;;;;;4881156;29;20036;-66
2021/07/12 00:13:22;;;;;;;28.38;20.65;;;21.70;86.90;;;;;;4897516;29;20510;-65
2021/07/12 00:15:47;;;;;;;27.05;19.75;;;21.70;86.90;;;;;;4897030;29;20050;-67
2021/07/12 00:18:13;;;;;;;26.20;19.67;;;21.70;86.90;;;;;;4883092;29;20040;-67
2021/07/12 00:20:38;;;;;;;26.83;19.10;;;21.60;87.00;;;;;;4897200;29;20036;-66
2021/07/12 00:23:04;;;;;;;30.02;20.08;;;21.60;87.20;;;;;;4900440;29;20092;-67
2021/07/12 00:25:30;;;;;;;26.67;19.63;;;21.60;87.50;;;;;;4897215;29;20024;-66
2021/07/12 00:27:56;;;;;;;25.05;18.95;;;21.60;88.00;;;;;;4896895;29;20498;-66
2021/07/12 00:30:22;;;;;;;26.02;18.60;;;21.60;87.80;;;;;;4896883;29;20032;-66
2021/07/12 00:32:49;;;;;;;27.30;19.95;;;21.60;87.80;;;;;;4890013;29;20028;-66
2021/07/12 00:35:16;;;;;;;28.55;19.77;;;21.60;87.50;;;;;;4902057;29;20088;-66
2021/07/12 00:37:42;;;;;;;28.13;20.73;;;21.60;87.20;;;;;;4896804;29;20033;-67
2021/07/12 00:40:10;;;;;;;25.92;18.27;;;21.50;86.90;;;;;;4888902;29;20189;-67
2021/07/12 00:42:36;;;;;;;26.98;20.38;;;21.50;87.00;;;;;;4907704;29;20029;-67
2021/07/12 00:45:12;;;;;;;27.90;19.48;;;21.60;87.00;;;;;;4896923;29;20025;-66
2021/07/12 00:47:38;;;;;;;27.35;19.75;;;21.50;87.20;;;;;;4896848;29;20162;-67
2021/07/12 00:50:06;;;;;;;26.85;19.85;;;21.50;87.40;;;;;;4896615;29;20105;-67
2021/07/12 00:52:32;;;;;;;27.67;19.38;;;21.50;87.40;;;;;;4880127;29;20024;-68
2021/07/12 00:54:58;;;;;;;27.13;19.77;;;21.50;87.60;;;;;;4879800;29;20021;-67
2021/07/12 00:57:24;;;;;;;28.02;19.58;;;21.50;87.40;;;;;;4895967;29;20032;-66
2021/07/12 00:59:51;;;;;;;28.15;20.52;;;21.50;87.40;;;;;;4879311;29;20055;-66
2021/07/12 01:02:16;;;;;;;27.63;20.00;;;21.50;87.40;;;;;;4879604;29;20148;-67
2021/07/12 01:04:42;;;;;;;27.23;19.45;;;21.50;87.40;;;;;;4896970;29;20060;-67
2021/07/12 01:07:10;;;;;;;26.48;19.80;;;21.50;87.30;;;;;;4879710;29;20031;-65
2021/07/12 01:09:36;;;;;;;27.58;18.67;;;21.50;87.30;;;;;;4896620;29;20107;-67
2021/07/12 01:12:18;;;;;;;27.30;20.13;;;21.40;87.30;;;;;;4896130;29;20119;-65
2021/07/12 01:15:05;;;;;;;26.95;19.25;;;21.40;87.40;;;;;;4879540;29;20024;-66
2021/07/12 01:17:53;;;;;;;27.30;19.38;;;21.40;87.50;;;;;;4879331;29;20025;-66
2021/07/12 01:20:58;;;;;;;27.10;19.15;;;21.40;87.50;;;;;;4896287;29;20050;-66
2021/07/12 01:23:29;;;;;;;26.98;19.73;;;21.40;87.30;;;;;;4879936;29;20024;-65
2021/07/12 01:26:34;;;;;;;25.75;19.48;;;21.40;87.50;;;;;;4877759;29;20409;-67
2021/07/12 01:29:23;;;;;;;26.77;19.63;;;21.40;87.50;;;;;;4895817;29;20033;-66
2021/07/12 01:32:21;;;;;;;26.70;18.92;;;21.40;87.40;;;;;;4887175;29;20036;-66
2021/07/12 01:35:09;;;;;;;27.65;19.38;;;21.40;87.40;;;;;;4896239;29;20044;-66
2021/07/12 01:37:57;;;;;;;27.25;19.13;;;21.40;87.50;;;;;;4896500;29;20025;-66
2021/07/12 01:41:06;;;;;;;27.58;19.92;;;21.40;87.40;;;;;;4895826;29;20024;-66
2021/07/12 01:43:43;;;;;;;27.35;20.50;;;21.30;87.20;;;;;;4819570;29;20026;-66
2021/07/12 01:46:16;;;;;;;24.75;18.33;;;21.30;87.00;;;;;;4886408;29;20127;-65
2021/07/12 01:48:50;;;;;;;26.17;19.23;;;21.40;87.10;;;;;;4896390;29;20032;-65
2021/07/12 01:51:19;;;;;;;26.50;19.90;;;21.30;87.40;;;;;;4896027;29;20479;-66
2021/07/12 01:54:03;;;;;;;27.50;19.50;;;21.30;87.40;;;;;;4879401;29;20882;-66
2021/07/12 01:56:35;;;;;;;27.95;19.38;;;21.30;87.20;;;;;;4879106;29;20059;-66
2021/07/12 01:59:14;;;;;;;26.92;19.08;;;21.30;87.30;;;;;;4896539;29;20578;-66
2021/07/12 02:01:41;;;;;;;24.00;18.58;;;21.30;87.60;;;;;;4872037;29;20041;-66
2021/07/12 02:04:08;;;;;;;26.58;18.30;;;21.30;87.50;;;;;;4879188;29;20032;-66
2021/07/12 02:06:39;;;;;;;25.48;18.60;;;21.30;87.50;;;;;;4895861;29;20072;-65
2021/07/12 02:09:07;;;;;;;26.45;18.95;;;21.30;87.60;;;;;;4896401;29;20036;-66
2021/07/12 02:11:34;;;;;;;29.70;19.52;;;21.30;88.20;;;;;;4878847;29;20033;-65
2021/07/12 02:14:00;;;;;;;25.48;19.17;;;21.30;88.10;;;;;;4896069;29;20043;-67
2021/07/12 02:16:27;;;;;;;30.17;20.48;;;21.30;87.80;;;;;;4895885;29;20431;-66
2021/07/12 02:18:54;;;;;;;27.17;19.40;;;21.30;88.10;;;;;;4896188;29;20035;-67
2021/07/12 02:21:21;;;;;;;26.75;19.10;;;21.30;87.60;;;;;;4895731;29;20064;-66
2021/07/12 02:23:48;;;;;;;29.08;19.55;;;21.20;87.20;;;;;;4879613;29;20040;-66
2021/07/12 02:26:15;;;;;;;27.80;20.20;;;21.20;87.10;;;;;;4882715;29;20040;-66
2021/07/12 02:28:44;;;;;;;24.95;18.27;;;21.20;87.00;;;;;;4882517;29;20124;-67
2021/07/12 02:31:12;;;;;;;25.50;18.58;;;21.20;87.00;;;;;;4899436;29;20400;-67
2021/07/12 02:33:39;;;;;;;27.17;19.40;;;21.20;86.80;;;;;;4882381;29;20028;-67
2021/07/12 02:36:06;;;;;;;22.92;17.33;;;21.20;86.80;;;;;;4882412;29;20025;-68
2021/07/12 02:38:35;;;;;;;23.85;17.05;;;21.20;86.90;;;;;;4882507;29;20546;-67
2021/07/12 02:41:01;;;;;;;24.20;17.85;;;21.20;86.70;;;;;;4898557;29;20033;-67
2021/07/12 02:43:27;;;;;;;23.73;17.52;;;21.20;86.60;;;;;;4882219;29;20498;-66
2021/07/12 02:45:54;;;;;;;24.85;17.50;;;21.20;86.60;;;;;;4899324;29;20033;-67
2021/07/12 02:48:19;;;;;;;23.67;17.20;;;21.20;86.60;;;;;;4899056;29;20044;-67
2021/07/12 02:50:49;;;;;;;20.00;16.13;;;21.20;86.40;;;;;;4878991;29;20025;-66
2021/07/12 02:53:21;;;;;;;21.63;16.45;;;21.20;86.50;;;;;;4905259;29;20031;-67
2021/07/12 02:55:47;;;;;;;21.27;15.85;;;21.10;86.30;;;;;;4903311;29;20032;-66
2021/07/12 02:58:12;;;;;;;27.05;17.40;;;21.10;86.20;;;;;;4899052;29;20041;-67
2021/07/12 03:00:38;;;;;;;19.75;15.52;;;21.10;86.10;;;;;;4899009;29;20052;-67
2021/07/12 03:03:04;;;;;;;23.10;14.93;;;21.10;86.20;;;;;;4881838;29;20403;-68
2021/07/12 03:05:30;;;;;;;19.55;14.57;;;21.10;86.30;;;;;;4898494;29;20044;-67
2021/07/12 03:08:13;;;;;;;21.38;15.13;;;21.00;86.50;;;;;;4898527;29;20115;-67
2021/07/12 03:10:43;;;;;;;19.17;14.60;;;21.10;86.70;;;;;;4898628;29;20047;-67
2021/07/12 03:13:14;;;;;;;21.83;15.63;;;21.10;86.90;;;;;;4898447;29;20436;-67
2021/07/12 03:15:41;;;;;;;19.13;14.13;;;21.10;87.10;;;;;;4898419;29;20028;-67
2021/07/12 03:18:14;;;;;;;18.55;14.32;;;21.10;87.50;;;;;;4898337;29;20035;-67
2021/07/12 03:20:43;;;;;;;21.02;14.30;;;21.10;87.70;;;;;;4898135;29;20096;-68
2021/07/12 03:23:09;;;;;;;16.88;13.30;;;21.10;87.50;;;;;;4897957;29;20035;-68
2021/07/12 03:25:36;;;;;;;18.35;13.40;;;21.10;87.30;;;;;;4881281;29;20487;-67
2021/07/12 03:28:04;;;;;;;16.15;12.93;;;21.10;87.20;;;;;;4898713;29;20037;-66
2021/07/12 03:30:32;;;;;;;16.45;13.10;;;21.10;87.10;;;;;;4885273;29;20035;-66
2021/07/12 03:32:58;;;;;;;17.27;12.73;;;21.10;87.20;;;;;;4884206;29;20031;-66
2021/07/12 03:35:31;;;;;;;15.20;11.95;;;21.10;87.00;;;;;;4880494;29;20028;-65
2021/07/12 03:37:57;;;;;;;17.95;12.68;;;21.00;87.00;;;;;;4881002;29;20120;-67
2021/07/12 03:40:23;;;;;;;17.55;12.35;;;21.00;86.70;;;;;;4881282;29;20141;-68
2021/07/12 03:42:49;;;;;;;18.58;11.80;;;21.00;86.30;;;;;;4880967;29;20078;-66
2021/07/12 03:45:15;;;;;;;15.30;11.80;;;21.00;85.90;;;;;;4897457;29;20028;-66
2021/07/12 03:47:41;;;;;;;15.50;11.55;;;21.00;86.00;;;;;;4897963;29;20056;-65
2021/07/12 03:50:11;;;;;;;15.45;11.43;;;21.00;86.10;;;;;;4881444;29;20135;-67
2021/07/12 03:52:48;;;;;;;14.95;10.80;;;21.00;85.90;;;;;;4881064;29;20033;-65
2021/07/12 03:55:15;;;;;;;13.40;10.98;;;21.00;85.80;;;;;;4897479;29;20442;-66
2021/07/12 03:57:41;;;;;;;14.40;11.65;;;21.00;85.80;;;;;;4898110;29;20394;-66
2021/07/12 04:00:12;;;;;;;15.05;11.52;;;21.00;85.80;;;;;;4877854;29;20037;-66
2021/07/12 04:02:39;;;;;;;13.43;11.38;;;21.00;85.70;;;;;;4897328;29;20047;-66
2021/07/12 04:05:06;;;;;;;13.25;10.55;;;21.00;85.60;;;;;;4897687;29;20510;-66
2021/07/12 04:07:33;;;;;;;15.57;12.05;;;21.00;85.50;;;;;;4880713;29;20036;-67
2021/07/12 04:09:58;;;;;;;17.52;12.15;;;21.00;85.40;;;;;;4880683;29;20067;-65
2021/07/12 04:12:24;;;;;;;13.68;10.73;;;21.00;85.30;;;;;;4897190;29;20054;-68
2021/07/12 04:14:54;;;;;;;13.80;10.98;;;21.00;85.50;;;;;;4880198;29;20088;-66
2021/07/12 04:17:20;;;;;;;14.20;11.40;;;21.00;85.70;;;;;;4880845;29;20029;-66
2021/07/12 04:19:46;;;;;;;13.32;10.55;;;21.00;85.80;;;;;;4897552;29;20025;-66
2021/07/12 04:22:12;;;;;;;13.85;10.48;;;21.00;85.80;;;;;;4880377;29;20025;-67
2021/07/12 04:24:38;;;;;;;14.07;10.30;;;21.00;86.00;;;;;;4879669;29;20036;-66
2021/07/12 04:27:04;;;;;;;12.88;10.23;;;21.00;86.40;;;;;;4897551;29;20025;-65
2021/07/12 04:29:30;;;;;;;15.05;10.10;;;21.00;86.10;;;;;;4880759;29;20039;-66
2021/07/12 04:31:56;;;;;;;12.30;9.93;;;21.00;86.00;;;;;;4896806;29;21493;-66
2021/07/12 04:34:22;;;;;;;13.00;9.85;;;21.00;86.10;;;;;;4896552;29;20029;-66
2021/07/12 04:36:48;;;;;;;12.10;10.05;;;21.00;86.10;;;;;;4880029;29;20104;-65
2021/07/12 04:39:13;;;;;;;13.02;9.23;;;21.00;86.00;;;;;;4897269;29;20029;-64
2021/07/12 04:41:39;;;;;;;11.55;9.93;;;21.00;85.90;;;;;;4897174;29;20518;-66
2021/07/12 04:44:05;;;;;;;11.40;9.73;;;21.00;86.10;;;;;;4879620;29;20038;-67
2021/07/12 04:46:30;;;;;;;12.55;8.95;;;21.00;86.20;;;;;;4879845;29;20040;-66
2021/07/12 04:48:56;;;;;;;12.68;9.30;;;21.00;86.10;;;;;;4895548;29;20551;-66
2021/07/12 04:51:21;;;;;;;14.48;9.45;;;21.00;86.40;;;;;;4915052;29;20043;-66
2021/07/12 04:53:47;;;;;;;11.23;9.00;;;21.00;86.40;;;;;;4905752;29;20036;-66
2021/07/12 04:56:12;;;;;;;11.30;9.10;;;21.00;86.70;;;;;;4899845;29;20031;-66
2021/07/12 04:58:44;;;;;;;12.00;9.30;;;21.00;86.30;;;;;;4897073;29;20542;-66
2021/07/12 05:01:10;;;;;;;12.73;8.13;;;21.00;86.00;;;;;;4891322;29;20036;-66
2021/07/12 05:03:35;;;;;;;11.30;8.05;;;21.00;86.00;;;;;;4902903;29;20394;-66
2021/07/12 05:06:01;;;;;;;10.57;8.50;;;21.00;86.00;;;;;;4894248;29;20036;-67
2021/07/12 05:08:27;;;;;;;11.02;8.75;;;21.00;86.00;;;;;;4879519;29;20728;-66
2021/07/12 05:10:52;;;;;;;10.20;8.57;;;21.00;86.00;;;;;;4879489;29;20044;-66
2021/07/12 05:13:18;;;;;;;12.10;8.13;;;21.00;86.20;;;;;;4896237;29;20060;-66
2021/07/12 05:15:44;;;;;;;10.50;8.00;;;21.00;86.30;;;;;;4892455;29;20066;-66
2021/07/12 05:18:11;;;;;;;13.38;8.40;;;21.00;86.20;;;;;;4900964;29;20048;-66
2021/07/12 05:20:36;;;;;;;11.05;8.52;;;21.00;86.40;;;;;;4889008;29;20040;-66
2021/07/12 05:23:02;;;;;;;12.98;9.45;;;21.00;86.50;;;;;;4884235;29;20041;-68
2021/07/12 05:25:28;;;;;;;11.77;8.95;;;21.00;86.30;;;;;;4887938;29;20482;-66
2021/07/12 05:27:53;;;;;;;11.02;8.73;;;21.10;86.50;;;;;;4890538;29;20060;-67
2021/07/12 05:30:19;;;;;;;11.02;8.88;;;21.10;86.70;;;;;;4872865;29;20029;-66
2021/07/12 05:32:45;;;;;;;12.18;8.90;;;21.10;86.60;;;;;;4873460;29;20521;-67
2021/07/12 05:35:11;;;;;;;13.98;9.57;;;21.10;86.60;;;;;;4889280;29;20589;-66
2021/07/12 05:37:37;;;;;;;11.77;9.15;;;21.10;86.80;;;;;;4890588;29;20028;-66
2021/07/12 05:40:05;;;;;;;13.02;9.60;;;21.10;86.80;;;;;;4890141;29;20495;-71
2021/07/12 05:42:30;;;;;;;13.43;9.10;;;21.20;86.90;;;;;;4889917;29;20036;-67
2021/07/12 05:44:56;;;;;;;13.07;9.82;;;21.20;87.00;;;;;;4889690;29;20099;-67
2021/07/12 05:47:22;;;;;;;16.98;12.95;;;21.20;87.30;;;;;;4890205;29;20108;-67
2021/07/12 05:49:47;;;;;;;18.95;13.00;;;21.20;87.80;;;;;;4888880;29;20041;-65
2021/07/12 05:52:13;;;;;;;16.15;12.98;;;21.30;88.10;;;;;;4889912;29;20071;-67
2021/07/12 05:54:39;;;;;;;17.80;13.20;;;21.40;88.20;;;;;;4888765;29;20064;-65
2021/07/12 05:57:04;;;;;;;17.52;13.55;;;21.40;87.70;;;;;;4889730;29;20024;-66
2021/07/12 05:59:30;;;;;;;18.58;14.15;;;21.50;87.50;;;;;;4875077;29;20051;-65
2021/07/12 06:01:55;;;;;;;20.48;13.52;;;21.50;87.00;;;;;;4877866;29;20407;-66
2021/07/12 06:04:21;;;;;;;18.33;14.13;;;21.50;86.80;;;;;;4892709;29;20079;-64
2021/07/12 06:06:46;;;;;;;18.63;13.18;;;21.60;86.80;;;;;;4893428;29;20120;-67
2021/07/12 06:09:12;;;;;;;18.75;13.35;;;21.50;87.80;;;;;;4893644;29;20448;-66
2021/07/12 06:11:38;;;;;;;19.80;13.20;;;21.50;87.90;;;;;;4876322;29;20071;-68
2021/07/12 06:14:03;;;;;;;17.45;13.52;;;21.60;87.60;;;;;;4876194;29;20039;-67
2021/07/12 06:16:29;;;;;;;22.73;13.48;;;21.60;87.60;;;;;;4892284;29;20160;-66
2021/07/12 06:18:55;;;;;;;19.92;14.27;;;21.60;87.90;;;;;;4891547;29;20028;-67
2021/07/12 06:21:20;;;;;;;20.20;14.38;;;21.60;87.80;;;;;;4876800;29;20037;-65
2021/07/12 06:23:46;;;;;;;21.48;14.70;;;21.60;87.40;;;;;;4893553;29;20036;-67
2021/07/12 06:26:11;;;;;;;34.97;18.73;;;21.60;87.50;;;;;;4893368;29;20791;-67
2021/07/12 06:28:37;;;;;;;26.75;14.90;;;21.60;87.50;;;;;;4891665;29;20056;-66
2021/07/12 06:31:02;;;;;;;27.67;14.07;;;21.60;87.80;;;;;;4874093;29;20033;-68
2021/07/12 06:33:29;;;;;;;30.95;15.35;;;21.60;87.10;;;;;;4857997;29;20028;-67
2021/07/12 06:35:55;;;;;;;55.15;24.85;;;21.60;87.00;;;;;;4874456;29;20072;-68
2021/07/12 06:38:21;;;;;;;39.25;21.90;;;21.70;88.80;;;;;;4874642;29;20436;-66
2021/07/12 06:40:47;;;;;;;35.00;18.90;;;21.80;89.50;;;;;;4874603;29;20100;-66
2021/07/12 06:43:13;;;;;;;28.27;17.05;;;21.80;88.90;;;;;;4890971;29;20044;-67
2021/07/12 06:45:38;;;;;;;27.80;16.58;;;21.90;88.70;;;;;;4893106;29;20032;-66
2021/07/12 06:48:05;;;;;;;29.48;16.08;;;22.00;88.10;;;;;;4893457;29;20048;-67
2021/07/12 06:50:31;;;;;;;28.15;16.27;;;22.00;86.80;;;;;;4892978;29;20047;-66
2021/07/12 06:52:56;;;;;;;25.63;15.38;;;22.10;86.10;;;;;;4893183;29;20403;-67
2021/07/12 06:55:22;;;;;;;30.83;16.27;;;22.10;85.40;;;;;;4892961;29;20177;-67
2021/07/12 06:57:47;;;;;;;26.05;15.20;;;22.10;85.40;;;;;;4893276;29;20020;-67
2021/07/12 07:00:13;;;;;;;24.25;14.65;;;22.10;85.50;;;;;;4898421;29;20032;-67
2021/07/12 07:02:39;;;;;;;23.17;14.30;;;22.10;85.20;;;;;;4911769;29;20064;-66
2021/07/12 07:05:06;;;;;;;25.23;15.25;;;22.20;84.80;;;;;;4911655;29;20024;-68
2021/07/12 07:07:31;;;;;;;23.35;13.98;;;22.20;85.00;;;;;;4895960;29;20031;-66
2021/07/12 07:09:57;;;;;;;23.92;14.45;;;22.20;84.70;;;;;;4903969;29;20091;-67
2021/07/12 07:12:23;;;;;;;23.55;14.05;;;22.30;84.80;;;;;;4866485;29;20020;-67
2021/07/12 07:14:48;;;;;;;21.88;14.63;;;22.30;84.80;;;;;;4903315;29;20035;-67
2021/07/12 07:17:14;;;;;;;19.55;13.70;;;22.40;84.50;;;;;;4899778;29;20044;-65
2021/07/12 07:19:40;;;;;;;26.30;14.45;;;22.40;84.00;;;;;;4896017;29;20048;-67
2021/07/12 07:22:05;;;;;;;24.75;13.95;;;22.40;84.20;;;;;;4875872;29;20036;-68
2021/07/12 07:24:31;;;;;;;19.20;13.75;;;22.50;84.20;;;;;;4894793;29;20029;-66
2021/07/12 07:26:56;;;;;;;19.15;13.30;;;22.50;83.70;;;;;;4875631;29;20789;-65
2021/07/12 07:29:22;;;;;;;19.75;13.85;;;22.50;83.50;;;;;;4901676;29;20232;-66
2021/07/12 07:31:49;;;;;;;21.42;14.13;;;22.60;83.70;;;;;;4894305;29;20387;-67
2021/07/12 07:34:15;;;;;;;26.52;15.57;;;22.60;83.80;;;;;;4910218;29;20031;-65
2021/07/12 07:36:41;;;;;;;19.23;14.60;;;22.70;82.30;;;;;;4904240;29;20092;-67
2021/07/12 07:39:07;;;;;;;20.77;14.52;;;22.70;83.40;;;;;;4901184;29;20032;-66
2021/07/12 07:41:33;;;;;;;21.30;14.98;;;22.80;82.70;;;;;;4884845;29;20493;-69
2021/07/12 07:43:59;;;;;;;23.45;15.52;;;22.90;82.50;;;;;;4901324;29;20500;-67
2021/07/12 07:46:25;;;;;;;19.98;15.27;;;22.90;82.70;;;;;;4882503;29;20036;-67
2021/07/12 07:48:50;;;;;;;19.75;13.27;;;23.00;82.20;;;;;;4885444;29;20410;-67
2021/07/12 07:51:16;;;;;;;17.88;12.93;;;23.00;81.90;;;;;;4881458;29;20059;-67
2021/07/12 07:53:41;;;;;;;19.98;13.30;;;23.10;82.30;;;;;;4908526;29;20609;-67
2021/07/12 07:56:07;;;;;;;19.65;13.88;;;23.10;81.70;;;;;;4901583;29;20133;-67
2021/07/12 07:58:33;;;;;;;17.63;13.27;;;23.10;81.40;;;;;;4873734;29;20032;-67
2021/07/12 08:01:00;;;;;;;21.75;13.95;;;23.20;81.80;;;;;;4891609;29;20029;-66
2021/07/12 08:03:26;;;;;;;19.40;14.82;;;23.20;81.10;;;;;;4890807;29;20475;-67
2021/07/12 08:05:52;;;;;;;23.35;16.02;;;23.30;80.20;;;;;;4881855;29;20040;-66
2021/07/12 08:08:17;;;;;;;23.85;16.33;;;23.20;80.70;;;;;;4899544;29;20570;-66
2021/07/12 08:10:43;;;;;;;21.55;15.82;;;23.20;81.00;;;;;;4897771;29;20044;-68
2021/07/12 08:13:09;;;;;;;23.02;16.23;;;23.30;80.20;;;;;;4901226;29;20091;-66
2021/07/12 08:15:36;;;;;;;23.08;16.38;;;23.20;80.70;;;;;;4900131;29;20024;-67
2021/07/12 08:18:02;;;;;;;20.70;14.93;;;23.30;80.60;;;;;;4899294;29;20386;-66
2021/07/12 08:20:28;;;;;;;18.30;13.40;;;23.50;80.80;;;;;;4901558;29;20040;-67
2021/07/12 08:22:54;;;;;;;21.63;15.15;;;23.50;79.50;;;;;;4871256;29;20032;-68
2021/07/12 08:25:21;;;;;;;17.98;12.93;;;23.60;79.40;;;;;;4894665;29;20020;-68
2021/07/12 08:27:48;;;;;;;18.25;13.20;;;23.60;80.20;;;;;;4904607;29;20040;-66
2021/07/12 08:30:15;;;;;;;17.88;12.48;;;23.60;79.50;;;;;;4892626;29;20111;-70
2021/07/12 08:32:42;;;;;;;18.85;13.13;;;23.60;80.30;;;;;;4890035;29;20021;-66
2021/07/12 08:35:08;;;;;;;17.63;12.05;;;23.70;79.20;;;;;;4899976;29;20032;-67
2021/07/12 08:37:34;;;;;;;17.52;12.75;;;23.80;78.70;;;;;;4899224;29;20049;-67
2021/07/12 08:40:00;;;;;;;19.05;14.02;;;23.90;79.10;;;;;;4898678;29;20063;-67
2021/07/12 08:42:26;;;;;;;16.48;13.18;;;24.00;77.40;;;;;;4902775;29;20040;-68
2021/07/12 08:44:52;;;;;;;19.63;14.82;;;24.00;77.50;;;;;;4900573;29;20188;-65
2021/07/12 08:47:17;;;;;;;19.30;14.43;;;23.90;76.60;;;;;;4899985;29;20471;-65
2021/07/12 08:49:43;;;;;;;22.95;14.65;;;23.90;77.50;;;;;;4898542;29;20075;-67
2021/07/12 08:52:09;;;;;;;21.27;15.73;;;23.90;78.20;;;;;;4908227;29;20036;-65
2021/07/12 08:54:37;;;;;;;19.80;14.80;;;24.00;76.80;;;;;;4892605;29;20040;-62
2021/07/12 08:57:03;;;;;;;21.23;16.23;;;24.10;77.10;;;;;;4892745;29;20032;-65
2021/07/12 08:59:30;;;;;;;22.25;14.25;;;24.20;77.10;;;;;;4894546;29;20028;-66
2021/07/12 09:02:10;;;;;;;20.30;13.57;;;24.20;76.60;;;;;;4893957;29;20107;-63
2021/07/12 09:04:42;;;;;;;24.05;16.05;;;24.40;77.80;;;;;;4896023;29;20111;-63
2021/07/12 09:07:14;;;;;;;19.15;12.77;;;24.40;76.20;;;;;;4890755;29;20031;-71
2021/07/12 09:09:40;;;;;;;21.73;14.35;;;24.40;77.20;;;;;;4906732;29;20425;-62
2021/07/12 09:12:17;;;;;;;17.67;11.55;;;24.50;76.10;;;;;;4909429;29;20020;-63
2021/07/12 09:15:08;;;;;;;17.15;12.35;;;24.50;75.60;;;;;;4880256;29;20028;-65
2021/07/12 09:17:39;;;;;;;15.85;11.85;;;24.60;76.50;;;;;;4900040;29;20028;-64
2021/07/12 09:20:08;;;;;;;16.33;12.35;;;24.50;76.60;;;;;;4870837;29;20029;-66
2021/07/12 09:22:40;;;;;;;18.83;13.60;;;24.50;76.40;;;;;;4893942;29;20031;-63
2021/07/12 09:25:07;;;;;;;;;;;24.40;75.40;;;;;;4897660;29;20474;-66
2021/07/12 09:27:35;;;;;;;17.55;12.05;;;24.60;76.50;;;;;;4888031;29;19963;-65
2021/07/12 09:30:08;;;;;;;16.85;11.48;;;24.70;76.20;;;;;;4903268;29;20030;-66
2021/07/12 09:32:36;;;;;;;15.93;11.93;;;24.70;77.20;;;;;;4875275;29;20141;-68
2021/07/12 09:35:06;;;;;;;15.30;10.93;;;24.60;78.30;;;;;;4882105;29;20033;-64
2021/07/12 09:37:34;;;;;;;14.38;10.98;;;24.60;78.00;;;;;;4879845;29;20111;-63
2021/07/12 09:40:05;;;;;;;16.48;11.50;;;24.60;79.10;;;;;;4884129;29;20052;-64
2021/07/12 09:42:31;;;;;;;14.10;10.60;;;24.70;77.50;;;;;;4899346;29;20760;-65
2021/07/12 09:45:06;;;;;;;14.23;10.40;;;24.70;78.40;;;;;;4897783;29;20024;-64
2021/07/12 09:47:34;;;;;;;13.93;9.95;;;24.70;75.40;;;;;;4898357;29;20037;-61
2021/07/12 09:50:05;;;;;;;13.13;10.13;;;24.80;76.10;;;;;;4895108;29;20040;-65
2021/07/12 09:52:41;;;;;;;15.65;10.23;;;24.70;77.50;;;;;;4890627;29;21026;-61
2021/07/12 09:55:08;;;;;;;15.13;10.32;;;24.90;74.10;;;;;;4890330;29;20131;-63
2021/07/12 09:57:34;;;;;;;14.68;10.90;;;24.90;74.80;;;;;;4890765;29;20568;-63
2021/07/12 10:00:08;;;;;;;15.02;11.18;;;24.90;72.50;;;;;;4897762;29;20752;-62
2021/07/12 10:02:36;;;;;;;13.52;10.52;;;24.90;73.70;;;;;;4881797;29;20451;-62
2021/07/12 10:05:05;;;;;;;18.88;10.48;;;25.00;73.20;;;;;;4879232;29;20037;-63
2021/07/12 10:07:31;;;;;;;15.57;9.85;;;25.00;74.60;;;;;;4870180;29;20033;-62
2021/07/12 10:09:59;;;;;;;15.60;10.48;;;24.90;75.20;;;;;;4885894;29;20559;-63
2021/07/12 10:12:25;;;;;;;14.27;9.73;;;24.90;75.20;;;;;;4871021;29;20028;-62
2021/07/12 10:14:51;;;;;;;14.65;8.90;;;25.00;75.20;;;;;;4880170;29;20282;-61
2021/07/12 10:17:18;;;;;;;15.70;10.70;;;25.00;75.40;;;;;;4895776;29;20080;-67
2021/07/12 10:19:45;;;;;;;22.15;10.65;;;24.90;78.00;;;;;;4908232;29;20032;-66
2021/07/12 10:22:12;;;;;;;13.30;9.48;;;24.90;76.50;;;;;;4877100;29;20494;-64
2021/07/12 10:24:42;;;;;;;15.43;9.63;;;25.00;77.60;;;;;;4873919;29;20036;-63
2021/07/12 10:27:22;;;;;;;16.63;10.00;;;25.00;74.80;;;;;;4899623;29;20028;-61
2021/07/12 10:29:49;;;;;;;15.73;9.47;;;25.10;71.90;;;;;;4898028;29;20043;-64
2021/07/12 10:32:23;;;;;;;13.65;9.90;;;25.10;74.20;;;;;;4895854;29;20032;-65
2021/07/12 10:34:58;;;;;;;14.23;9.93;;;25.10;74.30;;;;;;4904868;29;20035;-65
2021/07/12 10:37:27;;;;;;;11.73;8.95;;;25.10;75.50;;;;;;4873029;29;20036;-64
2021/07/12 10:40:14;;;;;;;14.13;9.95;;;25.10;77.50;;;;;;4889950;29;20032;-63
2021/07/12 10:42:42;;;;;;;12.73;8.95;;;25.10;73.80;;;;;;4869200;29;20047;-63
2021/07/12 10:45:16;;;;;;;12.20;9.38;;;25.10;74.20;;;;;;4868741;29;20056;-61
2021/07/12 10:47:51;;;;;;;13.65;9.98;;;25.00;74.00;;;;;;4873155;29;20484;-62
2021/07/12 10:50:35;;;;;;;14.63;10.00;;;25.00;73.60;;;;;;4873918;29;20037;-63
2021/07/12 10:53:23;;;;;;;11.40;8.38;;;25.10;72.80;;;;;;4873726;29;20057;-61
2021/07/12 10:56:10;;;;;;;14.18;9.18;;;25.10;73.10;;;;;;4861963;29;20756;-62
2021/07/12 10:58:37;;;;;;;13.48;8.35;;;25.00;74.50;;;;;;4874293;29;20104;-62
2021/07/12 11:01:05;;;;;;;13.45;8.70;;;25.10;74.50;;;;;;4874379;29;20519;-60
2021/07/12 11:03:38;;;;;;;11.60;8.55;;;25.10;73.80;;;;;;4876010;29;20056;-64
2021/07/12 11:06:11;;;;;;;12.43;9.02;;;25.20;74.80;;;;;;4901157;29;20133;-63
2021/07/12 11:08:48;;;;;;;17.83;8.93;;;25.10;72.60;;;;;;4911826;29;20055;-63
2021/07/12 11:11:19;;;;;;;11.15;7.95;;;25.20;72.80;;;;;;4907661;29;20040;-63
2021/07/12 11:13:57;;;;;;;10.85;7.70;;;25.10;72.40;;;;;;4901378;29;20094;-63
2021/07/12 11:16:35;;;;;;;11.85;8.68;;;25.10;72.50;;;;;;4910930;29;20108;-61
2021/07/12 11:19:24;;;;;;;11.15;8.15;;;25.10;73.50;;;;;;4911819;29;20032;-63
2021/07/12 11:21:51;;;;;;;12.48;9.98;;;25.10;73.40;;;;;;4894881;29;20028;-62
2021/07/12 11:24:24;;;;;;;13.13;9.75;;;25.10;71.30;;;;;;4909846;29;20040;-64
2021/07/12 11:26:55;;;;;;;14.73;10.13;;;25.10;71.70;;;;;;4911421;29;20032;-63
2021/07/12 11:29:31;;;;;;;12.35;8.80;;;25.10;71.50;;;;;;4894578;29;20044;-62
2021/07/12 11:32:03;;;;;;;11.40;8.57;;;25.10;73.20;;;;;;4894373;29;20043;-61
2021/07/12 11:34:46;;;;;;;9.95;7.75;;;25.10;71.80;;;;;;4905711;29;20039;-62
2021/07/12 11:37:15;;;;;;;10.55;8.43;;;25.00;72.20;;;;;;4904886;29;20072;-62
2021/07/12 11:39:45;;;;;;;11.18;7.90;;;25.00;71.60;;;;;;4899086;29;20084;-63
2021/07/12 11:42:17;;;;;;;10.38;7.78;;;25.00;74.20;;;;;;4875178;29;20036;-62
2021/07/12 11:44:47;;;;;;;13.07;8.18;;;25.00;72.30;;;;;;4875057;29;20578;-63
2021/07/12 11:47:15;;;;;;;10.68;7.38;;;25.00;73.10;;;;;;4891910;29;20114;-68
2021/07/12 11:49:49;;;;;;;12.32;8.40;;;25.00;77.30;;;;;;4875175;29;20529;-71
2021/07/12 11:52:14;;;;;;;11.77;7.60;;;25.10;72.90;;;;;;4891986;29;20116;-61
2021/07/12 11:54:40;;;;;;;13.85;8.15;;;25.10;72.80;;;;;;4883896;29;20123;-70
2021/07/12 11:57:14;;;;;;;9.98;7.32;;;25.00;72.50;;;;;;4900350;29;20717;-65
2021/07/12 11:59:41;;;;;;;12.70;7.57;;;25.00;73.70;;;;;;4887998;29;20043;-65
2021/07/12 12:02:11;;;;;;;15.02;7.95;;;25.00;74.30;;;;;;4900286;29;20050;-66
2021/07/12 12:04:44;;;;;;;10.63;7.82;;;25.00;73.10;;;;;;4887317;29;20036;-64
2021/07/12 12:07:32;;;;;;;13.00;7.47;;;25.00;73.90;;;;;;4896836;29;20890;-65
2021/07/12 12:10:07;;;;;;;11.55;7.07;;;25.00;74.20;;;;;;4898252;29;20044;-65
2021/07/12 12:12:42;;;;;;;11.45;7.45;;;25.00;76.00;;;;;;4873971;29;20035;-64
2021/07/12 12:15:28;;;;;;;10.43;6.53;;;25.00;76.20;;;;;;4904328;29;20549;-64
2021/07/12 12:18:05;;;;;;;10.05;7.03;;;25.00;77.50;;;;;;4915584;29;20457;-63
2021/07/12 12:20:33;;;;;;;12.10;6.55;;;25.00;76.50;;;;;;4892248;29;20044;-64
2021/07/12 12:23:15;;;;;;;11.65;7.00;;;25.00;77.00;;;;;;4879681;29;20052;-65
2021/07/12 12:25:49;;;;;;;12.05;6.50;;;25.00;77.20;;;;;;4894700;29;20032;-64
2021/07/12 12:28:27;;;;;;;12.20;7.43;;;25.00;79.20;;;;;;4880602;29;20024;-64
2021/07/12 12:30:55;;;;;;;12.32;6.60;;;25.00;79.20;;;;;;4897387;29;20052;-63
2021/07/12 12:33:29;;;;;;;12.30;6.55;;;25.00;80.40;;;;;;4897283;29;20032;-63
2021/07/12 12:35:56;;;;;;;9.25;6.45;;;25.00;80.10;;;;;;4897135;29;20583;-62
2021/07/12 12:38:22;;;;;;;10.07;6.22;;;25.00;78.90;;;;;;4897451;29;20033;-63
2021/07/12 12:40:59;;;;;;;10.90;6.80;;;25.00;78.10;;;;;;4897334;29;20036;-63